sensor_id;sensor_type;location;lat;lon;timestamp;P1;durP1;ratioP1;P2;durP2;ratioP2
51692;SDS011;37777;53.066;21.638;2023-05-07T00:00:29;3.50;;;2.80;;
51692;SDS011;37777;53.066;21.638;2023-05-07T00:07:31;3.65;;;2.55;;
51692;SDS011;37777;53.066;21.638;2023-05-07T00:14:33;3.58;;;2.40;;
51692;SDS011;37777;53.066;21.638;2023-05-07T00:21:36;2.85;;;2.63;;
51692;SDS011;37777;53.066;21.638;2023-05-07T00:28:38;4.25;;;3.05;;
51692;SDS011;37777;53.066;21.638;2023-05-07T00:35:41;2.85;;;2.58;;
51692;SDS011;37777;53.066;21.638;2023-05-07T00:42:44;7.35;;;2.95;;
51692;SDS011;37777;53.066;21.638;2023-05-07T00:49:48;3.15;;;2.50;;
51692;SDS011;37777;53.066;21.638;2023-05-07T00:56:50;3.60;;;2.75;;
51692;SDS011;37777;53.066;21.638;2023-05-07T01:03:53;3.10;;;2.80;;
51692;SDS011;37777;53.066;21.638;2023-05-07T01:10:56;3.33;;;2.70;;
51692;SDS011;37777;53.066;21.638;2023-05-07T01:17:58;6.00;;;2.80;;
51692;SDS011;37777;53.066;21.638;2023-05-07T01:25:01;4.93;;;2.83;;
51692;SDS011;37777;53.066;21.638;2023-05-07T01:32:03;2.40;;;2.30;;
51692;SDS011;37777;53.066;21.638;2023-05-07T01:39:07;4.00;;;2.78;;
51692;SDS011;37777;53.066;21.638;2023-05-07T01:46:10;5.75;;;3.10;;
51692;SDS011;37777;53.066;21.638;2023-05-07T01:53:14;4.68;;;2.80;;
51692;SDS011;37777;53.066;21.638;2023-05-07T02:00:16;6.97;;;3.35;;
51692;SDS011;37777;53.066;21.638;2023-05-07T02:07:19;2.80;;;2.53;;
51692;SDS011;37777;53.066;21.638;2023-05-07T02:14:21;3.28;;;2.85;;
51692;SDS011;37777;53.066;21.638;2023-05-07T02:21:23;3.05;;;2.83;;
51692;SDS011;37777;53.066;21.638;2023-05-07T02:28:26;4.32;;;3.05;;
51692;SDS011;37777;53.066;21.638;2023-05-07T02:35:28;3.95;;;2.97;;
51692;SDS011;37777;53.066;21.638;2023-05-07T02:42:30;4.47;;;2.90;;
51692;SDS011;37777;53.066;21.638;2023-05-07T02:49:32;7.05;;;3.00;;
51692;SDS011;37777;53.066;21.638;2023-05-07T02:56:34;3.50;;;3.17;;
51692;SDS011;37777;53.066;21.638;2023-05-07T03:03:36;7.88;;;3.38;;
51692;SDS011;37777;53.066;21.638;2023-05-07T03:10:39;2.97;;;2.70;;
51692;SDS011;37777;53.066;21.638;2023-05-07T03:17:41;4.20;;;2.92;;
51692;SDS011;37777;53.066;21.638;2023-05-07T03:24:43;5.13;;;3.40;;
51692;SDS011;37777;53.066;21.638;2023-05-07T03:31:45;6.72;;;3.40;;
51692;SDS011;37777;53.066;21.638;2023-05-07T03:38:48;4.82;;;3.47;;
51692;SDS011;37777;53.066;21.638;2023-05-07T03:45:51;7.03;;;3.05;;
51692;SDS011;37777;53.066;21.638;2023-05-07T03:52:53;5.60;;;3.72;;
51692;SDS011;37777;53.066;21.638;2023-05-07T03:59:55;5.82;;;3.10;;
51692;SDS011;37777;53.066;21.638;2023-05-07T04:06:57;9.82;;;4.00;;
51692;SDS011;37777;53.066;21.638;2023-05-07T04:13:59;4.05;;;3.08;;
51692;SDS011;37777;53.066;21.638;2023-05-07T04:21:01;3.88;;;3.22;;
51692;SDS011;37777;53.066;21.638;2023-05-07T04:28:03;6.47;;;3.40;;
51692;SDS011;37777;53.066;21.638;2023-05-07T04:35:05;5.72;;;3.20;;
51692;SDS011;37777;53.066;21.638;2023-05-07T04:42:08;5.15;;;3.85;;
51692;SDS011;37777;53.066;21.638;2023-05-07T04:49:11;4.72;;;3.47;;
51692;SDS011;37777;53.066;21.638;2023-05-07T04:56:13;4.18;;;3.25;;
51692;SDS011;37777;53.066;21.638;2023-05-07T05:03:15;4.93;;;3.35;;
51692;SDS011;37777;53.066;21.638;2023-05-07T05:10:17;6.50;;;3.63;;
51692;SDS011;37777;53.066;21.638;2023-05-07T05:17:19;4.55;;;3.35;;
51692;SDS011;37777;53.066;21.638;2023-05-07T05:24:21;3.67;;;3.33;;
51692;SDS011;37777;53.066;21.638;2023-05-07T05:31:24;6.57;;;3.40;;
51692;SDS011;37777;53.066;21.638;2023-05-07T05:38:26;4.85;;;2.95;;
51692;SDS011;37777;53.066;21.638;2023-05-07T05:45:28;3.88;;;2.60;;
51692;SDS011;37777;53.066;21.638;2023-05-07T05:52:31;4.32;;;2.67;;
51692;SDS011;37777;53.066;21.638;2023-05-07T05:59:33;3.80;;;2.80;;
51692;SDS011;37777;53.066;21.638;2023-05-07T06:06:36;3.28;;;2.92;;
51692;SDS011;37777;53.066;21.638;2023-05-07T06:13:38;7.38;;;3.28;;
51692;SDS011;37777;53.066;21.638;2023-05-07T06:20:41;3.17;;;2.80;;
51692;SDS011;37777;53.066;21.638;2023-05-07T06:27:43;3.63;;;2.80;;
51692;SDS011;37777;53.066;21.638;2023-05-07T06:34:45;3.00;;;2.58;;
51692;SDS011;37777;53.066;21.638;2023-05-07T06:41:47;3.45;;;2.88;;
51692;SDS011;37777;53.066;21.638;2023-05-07T06:48:49;5.22;;;3.10;;
51692;SDS011;37777;53.066;21.638;2023-05-07T06:55:51;4.32;;;2.80;;
51692;SDS011;37777;53.066;21.638;2023-05-07T07:02:54;3.17;;;2.60;;
51692;SDS011;37777;53.066;21.638;2023-05-07T07:09:57;2.97;;;2.53;;
51692;SDS011;37777;53.066;21.638;2023-05-07T07:16:59;2.83;;;2.55;;
51692;SDS011;37777;53.066;21.638;2023-05-07T07:24:02;2.72;;;2.42;;
51692;SDS011;37777;53.066;21.638;2023-05-07T07:31:04;4.97;;;2.72;;
51692;SDS011;37777;53.066;21.638;2023-05-07T07:38:06;8.40;;;3.00;;
51692;SDS011;37777;53.066;21.638;2023-05-07T07:45:08;2.95;;;2.55;;
51692;SDS011;37777;53.066;21.638;2023-05-07T07:52:10;6.85;;;3.13;;
51692;SDS011;37777;53.066;21.638;2023-05-07T07:59:12;7.20;;;2.83;;
51692;SDS011;37777;53.066;21.638;2023-05-07T08:06:16;3.63;;;2.88;;
51692;SDS011;37777;53.066;21.638;2023-05-07T08:13:18;2.70;;;2.50;;
51692;SDS011;37777;53.066;21.638;2023-05-07T08:20:20;4.10;;;2.65;;
51692;SDS011;37777;53.066;21.638;2023-05-07T08:27:22;3.33;;;2.70;;
51692;SDS011;37777;53.066;21.638;2023-05-07T08:34:25;5.25;;;2.33;;
51692;SDS011;37777;53.066;21.638;2023-05-07T08:41:27;3.25;;;2.65;;
51692;SDS011;37777;53.066;21.638;2023-05-07T08:48:29;3.50;;;2.50;;
51692;SDS011;37777;53.066;21.638;2023-05-07T08:55:32;3.22;;;2.55;;
51692;SDS011;37777;53.066;21.638;2023-05-07T09:02:35;2.67;;;2.47;;
51692;SDS011;37777;53.066;21.638;2023-05-07T09:09:37;4.28;;;2.55;;
51692;SDS011;37777;53.066;21.638;2023-05-07T09:16:39;3.33;;;2.70;;
51692;SDS011;37777;53.066;21.638;2023-05-07T09:23:42;2.90;;;2.20;;
51692;SDS011;37777;53.066;21.638;2023-05-07T09:30:44;3.38;;;2.20;;
51692;SDS011;37777;53.066;21.638;2023-05-07T09:37:46;8.90;;;2.40;;
51692;SDS011;37777;53.066;21.638;2023-05-07T09:44:48;2.83;;;2.20;;
51692;SDS011;37777;53.066;21.638;2023-05-07T09:51:51;2.40;;;2.20;;
51692;SDS011;37777;53.066;21.638;2023-05-07T09:58:54;3.63;;;2.33;;
51692;SDS011;37777;53.066;21.638;2023-05-07T10:05:58;6.47;;;2.53;;
51692;SDS011;37777;53.066;21.638;2023-05-07T10:13:01;2.50;;;2.30;;
51692;SDS011;37777;53.066;21.638;2023-05-07T10:20:07;2.63;;;2.35;;
51692;SDS011;37777;53.066;21.638;2023-05-07T10:27:10;2.63;;;2.40;;
51692;SDS011;37777;53.066;21.638;2023-05-07T10:34:16;4.13;;;2.22;;
51692;SDS011;37777;53.066;21.638;2023-05-07T10:41:23;6.40;;;2.50;;
51692;SDS011;37777;53.066;21.638;2023-05-07T10:48:25;7.63;;;2.30;;
51692;SDS011;37777;53.066;21.638;2023-05-07T10:55:30;3.03;;;2.50;;
51692;SDS011;37777;53.066;21.638;2023-05-07T11:10:07;7.38;;;2.60;;
51692;SDS011;37777;53.066;21.638;2023-05-07T11:17:12;2.60;;;2.15;;
51692;SDS011;37777;53.066;21.638;2023-05-07T11:24:14;2.97;;;2.08;;
51692;SDS011;37777;53.066;21.638;2023-05-07T11:31:22;2.30;;;2.10;;
51692;SDS011;37777;53.066;21.638;2023-05-07T11:38:26;2.20;;;2.03;;
51692;SDS011;37777;53.066;21.638;2023-05-07T11:45:28;3.15;;;2.05;;
51692;SDS011;37777;53.066;21.638;2023-05-07T11:52:30;6.88;;;2.60;;
51692;SDS011;37777;53.066;21.638;2023-05-07T11:59:39;2.80;;;2.28;;
51692;SDS011;37777;53.066;21.638;2023-05-07T12:06:45;3.13;;;2.63;;
51692;SDS011;37777;53.066;21.638;2023-05-07T12:13:48;2.75;;;2.38;;
51692;SDS011;37777;53.066;21.638;2023-05-07T12:20:50;3.42;;;2.22;;
51692;SDS011;37777;53.066;21.638;2023-05-07T12:27:53;1.95;;;1.80;;
51692;SDS011;37777;53.066;21.638;2023-05-07T12:34:55;4.25;;;2.35;;
51692;SDS011;37777;53.066;21.638;2023-05-07T12:41:58;3.03;;;2.45;;
51692;SDS011;37777;53.066;21.638;2023-05-07T12:49:00;2.75;;;2.30;;
51692;SDS011;37777;53.066;21.638;2023-05-07T12:56:02;3.67;;;2.00;;
51692;SDS011;37777;53.066;21.638;2023-05-07T13:03:07;4.68;;;2.30;;
51692;SDS011;37777;53.066;21.638;2023-05-07T13:10:09;3.25;;;2.33;;
51692;SDS011;37777;53.066;21.638;2023-05-07T13:17:11;4.45;;;2.30;;
51692;SDS011;37777;53.066;21.638;2023-05-07T13:24:14;7.85;;;2.63;;
51692;SDS011;37777;53.066;21.638;2023-05-07T13:31:16;3.28;;;2.45;;
51692;SDS011;37777;53.066;21.638;2023-05-07T13:38:19;2.33;;;2.10;;
51692;SDS011;37777;53.066;21.638;2023-05-07T13:45:23;3.28;;;2.13;;
51692;SDS011;37777;53.066;21.638;2023-05-07T13:52:27;4.05;;;2.10;;
51692;SDS011;37777;53.066;21.638;2023-05-07T13:59:29;2.15;;;1.98;;
51692;SDS011;37777;53.066;21.638;2023-05-07T14:06:32;2.50;;;2.17;;
51692;SDS011;37777;53.066;21.638;2023-05-07T14:13:34;2.92;;;2.00;;
51692;SDS011;37777;53.066;21.638;2023-05-07T14:20:37;6.30;;;1.80;;
51692;SDS011;37777;53.066;21.638;2023-05-07T14:27:39;2.38;;;1.95;;
51692;SDS011;37777;53.066;21.638;2023-05-07T14:34:41;2.42;;;2.22;;
51692;SDS011;37777;53.066;21.638;2023-05-07T14:41:43;4.53;;;2.20;;
51692;SDS011;37777;53.066;21.638;2023-05-07T14:48:45;5.70;;;2.28;;
51692;SDS011;37777;53.066;21.638;2023-05-07T14:55:50;2.35;;;2.08;;
51692;SDS011;37777;53.066;21.638;2023-05-07T15:02:52;3.13;;;2.40;;
51692;SDS011;37777;53.066;21.638;2023-05-07T15:09:55;8.20;;;2.30;;
51692;SDS011;37777;53.066;21.638;2023-05-07T15:16:57;2.30;;;2.10;;
51692;SDS011;37777;53.066;21.638;2023-05-07T15:23:59;4.57;;;2.28;;
51692;SDS011;37777;53.066;21.638;2023-05-07T15:31:02;4.88;;;2.40;;
51692;SDS011;37777;53.066;21.638;2023-05-07T15:38:04;7.40;;;2.30;;
51692;SDS011;37777;53.066;21.638;2023-05-07T15:45:06;5.05;;;2.00;;
51692;SDS011;37777;53.066;21.638;2023-05-07T15:52:09;2.75;;;2.28;;
51692;SDS011;37777;53.066;21.638;2023-05-07T15:59:12;2.88;;;2.20;;
51692;SDS011;37777;53.066;21.638;2023-05-07T16:06:16;3.05;;;2.08;;
51692;SDS011;37777;53.066;21.638;2023-05-07T16:13:18;7.18;;;2.45;;
51692;SDS011;37777;53.066;21.638;2023-05-07T16:20:21;3.97;;;2.40;;
51692;SDS011;37777;53.066;21.638;2023-05-07T16:27:23;4.05;;;2.25;;
51692;SDS011;37777;53.066;21.638;2023-05-07T16:34:26;2.42;;;2.00;;
51692;SDS011;37777;53.066;21.638;2023-05-07T16:41:29;2.38;;;2.17;;
51692;SDS011;37777;53.066;21.638;2023-05-07T16:48:32;3.22;;;2.10;;
51692;SDS011;37777;53.066;21.638;2023-05-07T16:55:35;4.88;;;2.35;;
51692;SDS011;37777;53.066;21.638;2023-05-07T17:02:42;2.80;;;2.10;;
51692;SDS011;37777;53.066;21.638;2023-05-07T17:09:45;3.70;;;2.33;;
51692;SDS011;37777;53.066;21.638;2023-05-07T17:16:47;2.50;;;2.10;;
51692;SDS011;37777;53.066;21.638;2023-05-07T17:23:49;2.25;;;2.00;;
51692;SDS011;37777;53.066;21.638;2023-05-07T17:30:52;4.53;;;2.10;;
51692;SDS011;37777;53.066;21.638;2023-05-07T17:37:54;2.22;;;2.03;;
51692;SDS011;37777;53.066;21.638;2023-05-07T17:44:56;5.13;;;2.40;;
51692;SDS011;37777;53.066;21.638;2023-05-07T17:51:58;4.07;;;2.35;;
51692;SDS011;37777;53.066;21.638;2023-05-07T17:59:00;3.15;;;2.20;;
51692;SDS011;37777;53.066;21.638;2023-05-07T18:06:02;2.45;;;2.25;;
51692;SDS011;37777;53.066;21.638;2023-05-07T18:13:04;3.13;;;2.10;;
51692;SDS011;37777;53.066;21.638;2023-05-07T18:20:06;2.92;;;2.22;;
51692;SDS011;37777;53.066;21.638;2023-05-07T18:27:12;2.92;;;2.50;;
51692;SDS011;37777;53.066;21.638;2023-05-07T18:34:14;3.72;;;2.45;;
51692;SDS011;37777;53.066;21.638;2023-05-07T18:41:16;5.68;;;2.78;;
51692;SDS011;37777;53.066;21.638;2023-05-07T18:48:19;4.32;;;3.17;;
51692;SDS011;37777;53.066;21.638;2023-05-07T18:55:21;4.85;;;2.97;;
51692;SDS011;37777;53.066;21.638;2023-05-07T19:02:23;5.00;;;3.20;;
51692;SDS011;37777;53.066;21.638;2023-05-07T19:09:26;4.88;;;3.90;;
51692;SDS011;37777;53.066;21.638;2023-05-07T19:16:29;9.65;;;4.10;;
51692;SDS011;37777;53.066;21.638;2023-05-07T19:23:31;10.73;;;5.40;;
51692;SDS011;37777;53.066;21.638;2023-05-07T19:30:33;9.90;;;5.10;;
51692;SDS011;37777;53.066;21.638;2023-05-07T19:37:39;13.13;;;5.75;;
51692;SDS011;37777;53.066;21.638;2023-05-07T19:44:42;9.65;;;5.07;;
51692;SDS011;37777;53.066;21.638;2023-05-07T19:51:44;9.40;;;5.50;;
51692;SDS011;37777;53.066;21.638;2023-05-07T19:58:46;10.52;;;6.00;;
51692;SDS011;37777;53.066;21.638;2023-05-07T20:05:49;7.03;;;4.40;;
51692;SDS011;37777;53.066;21.638;2023-05-07T20:12:53;6.20;;;4.63;;
51692;SDS011;37777;53.066;21.638;2023-05-07T20:19:55;10.57;;;5.85;;
51692;SDS011;37777;53.066;21.638;2023-05-07T20:26:57;13.32;;;5.72;;
51692;SDS011;37777;53.066;21.638;2023-05-07T20:33:59;8.30;;;5.43;;
51692;SDS011;37777;53.066;21.638;2023-05-07T20:41:05;8.35;;;5.30;;
51692;SDS011;37777;53.066;21.638;2023-05-07T20:48:14;8.38;;;5.00;;
51692;SDS011;37777;53.066;21.638;2023-05-07T20:55:17;10.45;;;5.28;;
51692;SDS011;37777;53.066;21.638;2023-05-07T21:02:19;11.13;;;5.30;;
51692;SDS011;37777;53.066;21.638;2023-05-07T21:09:21;15.82;;;5.45;;
51692;SDS011;37777;53.066;21.638;2023-05-07T21:16:23;9.75;;;4.93;;
51692;SDS011;37777;53.066;21.638;2023-05-07T21:23:25;10.90;;;5.13;;
51692;SDS011;37777;53.066;21.638;2023-05-07T21:30:27;8.70;;;5.30;;
51692;SDS011;37777;53.066;21.638;2023-05-07T21:37:29;12.00;;;5.30;;
51692;SDS011;37777;53.066;21.638;2023-05-07T21:44:31;8.25;;;4.93;;
51692;SDS011;37777;53.066;21.638;2023-05-07T21:51:33;9.70;;;4.53;;
51692;SDS011;37777;53.066;21.638;2023-05-07T21:58:35;8.93;;;4.85;;
51692;SDS011;37777;53.066;21.638;2023-05-07T22:05:38;7.10;;;4.78;;
51692;SDS011;37777;53.066;21.638;2023-05-07T22:12:40;8.60;;;5.15;;
51692;SDS011;37777;53.066;21.638;2023-05-07T22:19:42;6.28;;;4.70;;
51692;SDS011;37777;53.066;21.638;2023-05-07T22:26:44;10.77;;;5.45;;
51692;SDS011;37777;53.066;21.638;2023-05-07T22:33:46;8.57;;;5.80;;
51692;SDS011;37777;53.066;21.638;2023-05-07T22:40:48;8.20;;;4.95;;
51692;SDS011;37777;53.066;21.638;2023-05-07T22:47:50;10.45;;;5.38;;
51692;SDS011;37777;53.066;21.638;2023-05-07T22:54:52;7.20;;;4.88;;
51692;SDS011;37777;53.066;21.638;2023-05-07T23:01:54;9.93;;;5.10;;
51692;SDS011;37777;53.066;21.638;2023-05-07T23:08:56;7.38;;;4.93;;
51692;SDS011;37777;53.066;21.638;2023-05-07T23:15:59;9.82;;;5.57;;
51692;SDS011;37777;53.066;21.638;2023-05-07T23:23:01;7.40;;;5.03;;
51692;SDS011;37777;53.066;21.638;2023-05-07T23:30:03;7.10;;;5.10;;
51692;SDS011;37777;53.066;21.638;2023-05-07T23:37:09;15.40;;;5.07;;
51692;SDS011;37777;53.066;21.638;2023-05-07T23:44:11;8.48;;;4.82;;
51692;SDS011;37777;53.066;21.638;2023-05-07T23:51:14;7.57;;;5.15;;
51692;SDS011;37777;53.066;21.638;2023-05-07T23:58:17;7.20;;;5.40;;
